createdAt,value
2016-12-01T00:00:53.405Z,0
2016-12-01T00:02:03.731Z,0
2016-12-01T00:03:14.049Z,0
2016-12-01T00:04:24.374Z,0
2016-12-01T00:05:33.757Z,0
2016-12-01T00:06:43.454Z,0
2016-12-01T00:07:53.472Z,0
2016-12-01T00:09:03.795Z,0
2016-12-01T00:10:14.140Z,0
2016-12-01T00:11:24.464Z,0
2016-12-01T00:12:34.823Z,0
2016-12-01T00:13:45.153Z,0
2016-12-01T00:14:55.173Z,0
2016-12-01T00:16:05.179Z,0
2016-12-01T00:17:15.506Z,0
2016-12-01T00:18:25.523Z,0
2016-12-01T00:19:35.859Z,0
2016-12-01T00:20:46.185Z,0
2016-12-01T00:21:55.607Z,0
2016-12-01T00:23:05.948Z,0
2016-12-01T00:24:15.645Z,0
2016-12-01T00:25:25.658Z,0
2016-12-01T00:26:35.998Z,0
2016-12-01T00:27:46.330Z,0
2016-12-01T00:28:56.667Z,0
2016-12-01T00:30:07.008Z,0
2016-12-01T00:31:17.337Z,0
2016-12-01T00:32:27.682Z,0
2016-12-01T00:33:37.384Z,0
2016-12-01T00:34:47.391Z,0
2016-12-01T00:35:57.410Z,0
2016-12-01T00:37:07.117Z,0
2016-12-01T00:38:16.846Z,0
2016-12-01T00:39:26.548Z,0
2016-12-01T00:40:36.559Z,0
2016-12-01T00:41:46.566Z,0
2016-12-01T00:42:56.892Z,0
2016-12-01T00:44:06.915Z,0
2016-12-01T00:45:16.934Z,0
2016-12-01T00:46:26.959Z,0
2016-12-01T00:47:37.273Z,0
2016-12-01T00:48:47.608Z,0
2016-12-01T00:49:57.620Z,0
2016-12-01T00:51:07.625Z,0
2016-12-01T00:52:17.957Z,0
2016-12-01T00:53:27.345Z,0
2016-12-01T00:54:37.648Z,0
2016-12-01T00:55:47.352Z,0
2016-12-01T00:56:57.923Z,0
2016-12-01T00:58:08.263Z,0
2016-12-01T00:59:18.269Z,0
2016-12-01T01:00:28.279Z,0
2016-12-01T01:01:38.288Z,0
2016-12-01T01:02:48.289Z,0
2016-12-01T01:03:58.615Z,0
2016-12-01T01:05:08.017Z,0
2016-12-01T01:06:17.729Z,0
2016-12-01T01:07:27.765Z,0
2016-12-01T01:08:37.785Z,0
2016-12-01T01:09:48.124Z,0
2016-12-01T01:10:57.520Z,0
2016-12-01T01:12:06.913Z,0
2016-12-01T01:13:16.923Z,0
2016-12-01T01:14:26.605Z,0
2016-12-01T01:15:36.299Z,0
2016-12-01T01:16:46.340Z,0
2016-12-01T01:17:56.352Z,0
2016-12-01T01:19:06.692Z,0
2016-12-01T01:20:17.021Z,0
2016-12-01T01:21:27.344Z,0
2016-12-01T01:22:37.688Z,0
2016-12-01T01:23:48.040Z,0
2016-12-01T01:24:57.741Z,0
2016-12-01T01:26:08.090Z,0
2016-12-01T01:27:18.424Z,0
2016-12-01T01:28:28.141Z,0
2016-12-01T01:29:38.169Z,0
2016-12-01T01:30:48.225Z,0
2016-12-01T01:31:58.237Z,0
2016-12-01T01:33:08.566Z,0
2016-12-01T01:34:18.916Z,0
2016-12-01T01:35:29.274Z,0
2016-12-01T01:36:39.281Z,0
2016-12-01T01:37:49.301Z,0
2016-12-01T01:38:59.629Z,0
2016-12-01T01:40:09.955Z,0
2016-12-01T01:41:19.968Z,0
2016-12-01T01:42:30.283Z,0
2016-12-01T01:43:40.610Z,0
2016-12-01T01:44:50.298Z,0
2016-12-01T01:46:00.620Z,0
2016-12-01T01:47:10.942Z,0
2016-12-01T01:48:21.282Z,0
2016-12-01T01:49:30.980Z,0
2016-12-01T01:50:41.021Z,0
2016-12-01T01:51:51.352Z,0
2016-12-01T01:53:01.060Z,0
2016-12-01T01:54:11.384Z,0
2016-12-01T01:55:21.708Z,0
2016-12-01T01:56:31.711Z,0
2016-12-01T01:57:42.042Z,0
2016-12-01T01:58:52.404Z,0
2016-12-01T02:00:02.735Z,0
2016-12-01T02:01:13.064Z,0
2016-12-01T02:02:23.380Z,0
2016-12-01T02:03:33.697Z,0
2016-12-01T02:04:43.714Z,0
2016-12-01T02:05:54.079Z,0
2016-12-01T02:07:04.397Z,0
2016-12-01T02:08:14.728Z,0
2016-12-01T02:09:25.050Z,0
2016-12-01T02:10:35.067Z,0
2016-12-01T02:11:45.129Z,0
2016-12-01T02:12:55.457Z,0
2016-12-01T02:14:05.487Z,0
2016-12-01T02:15:15.507Z,0
2016-12-01T02:16:25.830Z,0
2016-12-01T02:17:36.153Z,0
2016-12-01T02:18:45.869Z,0
2016-12-01T02:19:56.226Z,0
2016-12-01T02:21:06.545Z,0
2016-12-01T02:22:16.866Z,0
2016-12-01T02:23:26.893Z,0
2016-12-01T02:24:36.609Z,0
2016-12-01T02:25:46.646Z,0
2016-12-01T02:26:56.343Z,0
2016-12-01T02:28:06.664Z,0
2016-12-01T02:29:16.681Z,0
2016-12-01T02:30:27.005Z,0
2016-12-01T02:31:36.709Z,0
2016-12-01T02:32:47.027Z,0
2016-12-01T02:33:57.347Z,0
2016-12-01T02:35:07.361Z,0
2016-12-01T02:36:17.081Z,0
2016-12-01T02:37:27.402Z,0
2016-12-01T02:38:37.419Z,0
2016-12-01T02:39:46.808Z,0
2016-12-01T02:40:57.139Z,0
2016-12-01T02:42:07.157Z,0
2016-12-01T02:43:17.522Z,0
2016-12-01T02:44:27.844Z,0
2016-12-01T02:45:38.163Z,0
2016-12-01T02:46:48.212Z,0
2016-12-01T02:47:58.555Z,0
2016-12-01T02:49:08.877Z,0
2016-12-01T02:50:18.882Z,0
2016-12-01T02:51:29.206Z,0
2016-12-01T02:52:38.593Z,0
2016-12-01T02:53:48.600Z,0
2016-12-01T02:54:58.937Z,0
2016-12-01T02:56:09.263Z,0
2016-12-01T02:57:18.654Z,0
2016-12-01T02:58:28.352Z,0
2016-12-01T02:59:38.673Z,0
2016-12-01T03:00:48.991Z,0
2016-12-01T03:32:48.741Z,0
2016-12-01T03:33:58.438Z,0
2016-12-01T03:35:08.768Z,0
2016-12-01T03:36:19.080Z,0
2016-12-01T03:37:29.096Z,0
2016-12-01T03:38:39.423Z,0
2016-12-01T03:39:49.743Z,0
2016-12-01T03:41:00.067Z,0
2016-12-01T03:42:10.403Z,0
2016-12-01T03:43:20.716Z,0
2016-12-01T03:44:30.722Z,0
2016-12-01T03:45:40.459Z,0
2016-12-01T03:46:50.779Z,0
2016-12-01T03:48:01.091Z,0
2016-12-01T03:49:10.492Z,0
2016-12-01T03:50:20.512Z,0
2016-12-01T03:51:30.833Z,0
2016-12-01T03:52:41.189Z,0
2016-12-01T03:53:50.886Z,0
2016-12-01T03:55:01.201Z,0
2016-12-01T03:56:11.509Z,0
2016-12-01T03:57:21.210Z,0
2016-12-01T03:58:31.531Z,0
2016-12-01T03:59:42.089Z,0
2016-12-01T04:00:52.132Z,0
2016-12-01T04:02:02.446Z,0
2016-12-01T04:03:12.774Z,0
2016-12-01T04:04:23.095Z,0
2016-12-01T04:05:33.433Z,0
2016-12-01T04:06:43.443Z,0
2016-12-01T04:07:53.772Z,0
2016-12-01T04:09:03.772Z,0
2016-12-01T04:10:13.464Z,0
2016-12-01T04:11:23.791Z,0
2016-12-01T04:12:33.497Z,0
2016-12-01T04:13:43.522Z,0
2016-12-01T04:14:53.857Z,0
2016-12-01T04:16:03.555Z,0
2016-12-01T04:17:13.577Z,0
2016-12-01T04:18:23.903Z,0
2016-12-01T04:19:33.610Z,0
2016-12-01T04:20:43.628Z,0
2016-12-01T04:21:53.961Z,0
2016-12-01T04:23:04.294Z,0
2016-12-01T04:24:14.012Z,0
2016-12-01T04:25:24.029Z,0
2016-12-01T04:26:34.360Z,0
2016-12-01T04:27:44.366Z,0
2016-12-01T04:28:54.375Z,0
2016-12-01T04:30:04.404Z,0
2016-12-01T04:31:14.726Z,0
2016-12-01T04:32:24.744Z,0
2016-12-01T04:33:35.070Z,0
2016-12-01T04:34:45.391Z,0
2016-12-01T04:35:54.772Z,0
2016-12-01T04:37:04.793Z,0
2016-12-01T04:38:14.505Z,0
2016-12-01T04:39:24.526Z,0
2016-12-01T04:40:34.863Z,0
2016-12-01T04:41:44.565Z,0
2016-12-01T04:42:54.266Z,0
2016-12-01T04:44:04.590Z,0
2016-12-01T04:45:14.600Z,0
2016-12-01T04:46:24.932Z,0
2016-12-01T04:47:34.951Z,0
2016-12-01T04:48:44.352Z,0
2016-12-01T04:49:54.362Z,0
2016-12-01T04:51:04.688Z,0
2016-12-01T04:52:15.016Z,0
2016-12-01T04:53:25.378Z,0
2016-12-01T04:54:35.402Z,0
2016-12-01T04:55:45.414Z,0
2016-12-01T04:56:55.428Z,0
2016-12-01T04:58:05.672Z,0
2016-12-01T04:59:15.688Z,0
2016-12-01T05:00:26.007Z,0
2016-12-01T05:01:36.357Z,0
2016-12-01T05:02:46.059Z,0
2016-12-01T05:03:56.377Z,0
2016-12-01T05:05:06.725Z,0
2016-12-01T05:06:16.748Z,0
2016-12-01T05:07:27.079Z,0
2016-12-01T05:08:37.403Z,0
2016-12-01T05:09:47.735Z,0
2016-12-01T05:10:57.440Z,0
2016-12-01T05:12:07.771Z,0
2016-12-01T05:13:17.794Z,0
2016-12-01T05:14:27.505Z,0
2016-12-01T05:15:37.843Z,0
2016-12-01T05:16:48.163Z,0
2016-12-01T05:17:58.179Z,0
2016-12-01T05:19:08.502Z,0
2016-12-01T05:20:18.825Z,0
2016-12-01T05:21:28.850Z,0
2016-12-01T05:22:39.207Z,0
2016-12-01T05:23:49.219Z,0
2016-12-01T05:24:59.232Z,0
2016-12-01T05:26:09.244Z,0
2016-12-01T05:27:19.560Z,0
2016-12-01T05:28:29.883Z,0
2016-12-01T05:29:39.908Z,0
2016-12-01T05:30:50.246Z,0
2016-12-01T05:31:59.937Z,0
2016-12-01T05:33:09.951Z,0
2016-12-01T05:34:19.962Z,0
2016-12-01T05:35:30.300Z,0
2016-12-01T05:36:40.883Z,0
2016-12-01T05:37:50.588Z,0
2016-12-01T05:39:00.956Z,0
2016-12-01T05:40:11.272Z,0
2016-12-01T05:41:21.284Z,0
2016-12-01T05:42:31.292Z,0
2016-12-01T05:43:41.297Z,0
2016-12-01T05:44:51.659Z,0
2016-12-01T05:46:01.981Z,0
2016-12-01T05:47:12.541Z,0
2016-12-01T05:48:22.553Z,0
2016-12-01T05:49:32.565Z,0
2016-12-01T05:50:42.572Z,0
2016-12-01T05:51:52.277Z,0
2016-12-01T05:53:02.291Z,0
2016-12-01T05:54:12.006Z,0
2016-12-01T05:55:22.333Z,0
2016-12-01T05:56:32.389Z,0
2016-12-01T05:57:42.407Z,0
2016-12-01T05:58:52.119Z,0
2016-12-01T06:00:02.480Z,0
2016-12-01T06:01:12.511Z,0
2016-12-01T06:02:22.528Z,0
2016-12-01T06:03:32.890Z,0
2016-12-01T06:04:43.220Z,0
2016-12-01T06:05:53.247Z,0
2016-12-01T06:07:03.574Z,0
2016-12-01T06:08:13.285Z,0
2016-12-01T06:09:23.612Z,0
2016-12-01T06:10:33.943Z,0
2016-12-01T06:11:43.640Z,0
2016-12-01T06:12:53.664Z,0
2016-12-01T06:14:03.366Z,0
2016-12-01T06:15:13.109Z,0
2016-12-01T06:16:23.137Z,0
2016-12-01T06:17:33.154Z,0
2016-12-01T06:18:43.480Z,0
2016-12-01T06:19:53.492Z,0
2016-12-01T06:21:03.195Z,0
2016-12-01T06:22:13.201Z,0
2016-12-01T06:23:23.528Z,0
2016-12-01T06:24:33.840Z,0
2016-12-01T06:25:44.165Z,0
2016-12-01T06:26:53.873Z,0
2016-12-01T06:28:04.248Z,0
2016-12-01T06:29:14.265Z,0
2016-12-01T06:30:24.587Z,0
2016-12-01T06:31:34.624Z,0
2016-12-01T06:32:44.348Z,0
2016-12-01T06:33:53.808Z,0
2016-12-01T06:35:03.218Z,0
2016-12-01T06:36:13.544Z,0
2016-12-01T06:37:23.592Z,0
2016-12-01T06:38:33.610Z,0
2016-12-01T06:39:43.630Z,0
2016-12-01T06:40:53.327Z,0
2016-12-01T06:42:03.649Z,0
2016-12-01T06:43:13.666Z,0
2016-12-01T06:44:23.994Z,0
2016-12-01T06:45:34.025Z,0
2016-12-01T06:46:43.728Z,0
2016-12-01T06:47:53.453Z,5
2016-12-01T06:49:03.784Z,5
2016-12-01T06:50:13.481Z,5
2016-12-01T06:51:23.180Z,5
2016-12-01T06:52:33.514Z,5
2016-12-01T06:53:43.863Z,5
2016-12-01T06:54:53.586Z,5
2016-12-01T06:56:03.608Z,5
2016-12-01T06:57:13.615Z,5
2016-12-01T06:58:23.941Z,5
2016-12-01T06:59:34.255Z,5
2016-12-01T07:00:44.280Z,5
2016-12-01T07:01:54.314Z,5
2016-12-01T07:03:04.630Z,5
2016-12-01T07:04:14.661Z,10
2016-12-01T07:05:24.997Z,10
2016-12-01T07:06:35.018Z,10
2016-12-01T07:07:45.351Z,10
2016-12-01T07:08:55.368Z,10
2016-12-01T07:10:05.690Z,10
2016-12-01T07:11:15.723Z,10
2016-12-01T07:12:25.738Z,15
2016-12-01T07:13:36.069Z,15
2016-12-01T07:14:46.398Z,15
2016-12-01T07:15:56.729Z,15
2016-12-01T07:17:06.738Z,15
2016-12-01T07:18:16.757Z,15
2016-12-01T07:19:26.775Z,20
2016-12-01T07:20:36.839Z,20
2016-12-01T07:21:46.532Z,20
2016-12-01T07:22:56.578Z,20
2016-12-01T07:24:06.599Z,20
2016-12-01T07:25:16.627Z,20
2016-12-01T07:26:26.647Z,20
2016-12-01T07:27:36.657Z,20
2016-12-01T07:28:46.987Z,25
2016-12-01T07:29:56.703Z,25
2016-12-01T07:31:06.400Z,25
2016-12-01T07:32:16.419Z,25
2016-12-01T07:33:26.738Z,25
2016-12-01T07:34:36.769Z,25
2016-12-01T07:35:47.100Z,25
2016-12-01T07:36:57.184Z,30
2016-12-01T07:38:07.505Z,30
2016-12-01T07:39:17.865Z,30
2016-12-01T07:40:28.203Z,30
2016-12-01T07:41:38.240Z,30
2016-12-01T07:42:48.250Z,30
2016-12-01T07:43:58.580Z,35
2016-12-01T07:45:08.285Z,35
2016-12-01T07:46:18.321Z,35
2016-12-01T07:47:28.644Z,35
2016-12-01T07:48:38.344Z,35
2016-12-01T07:49:48.682Z,35
2016-12-01T07:50:59.019Z,35
2016-12-01T07:52:08.729Z,40
2016-12-01T07:53:19.087Z,40
2016-12-01T07:54:29.090Z,40
2016-12-01T07:55:39.462Z,40
2016-12-01T07:56:49.788Z,45
2016-12-01T07:58:00.133Z,45
2016-12-01T07:59:10.154Z,45
2016-12-01T08:00:20.163Z,45
2016-12-01T08:01:30.173Z,45
2016-12-01T08:02:40.198Z,45
2016-12-01T08:03:50.520Z,40
2016-12-01T08:05:00.848Z,40
2016-12-01T08:06:11.180Z,40
2016-12-01T08:07:20.879Z,40
2016-12-01T08:08:31.209Z,35
2016-12-01T08:09:41.260Z,40
2016-12-01T08:10:51.267Z,40
2016-12-01T08:12:01.595Z,40
2016-12-01T08:13:11.650Z,45
2016-12-01T08:14:21.688Z,45
2016-12-01T08:15:32.023Z,45
2016-12-01T08:16:42.051Z,45
2016-12-01T08:17:52.072Z,50
2016-12-01T08:19:02.089Z,55
2016-12-01T08:20:11.786Z,55
2016-12-01T08:21:22.107Z,55
2016-12-01T08:22:31.821Z,50
2016-12-01T08:23:42.170Z,50
2016-12-01T08:24:52.489Z,55
2016-12-01T08:26:02.828Z,60
2016-12-01T08:27:13.156Z,65
2016-12-01T08:28:23.166Z,70
2016-12-01T08:29:33.197Z,70
2016-12-01T08:30:43.530Z,70
2016-12-01T08:31:53.565Z,65
2016-12-01T08:33:03.892Z,70
2016-12-01T08:34:13.935Z,70
2016-12-01T08:35:23.956Z,70
2016-12-01T08:36:34.302Z,70
2016-12-01T08:37:44.633Z,65
2016-12-01T08:38:54.020Z,70
2016-12-01T08:40:04.347Z,70
2016-12-01T08:41:14.383Z,70
2016-12-01T08:42:24.419Z,75
2016-12-01T08:43:34.748Z,75
2016-12-01T08:44:44.768Z,80
2016-12-01T08:45:55.125Z,85
2016-12-01T08:47:05.132Z,90
2016-12-01T08:48:14.838Z,90
2016-12-01T08:49:25.155Z,100
2016-12-01T08:50:35.497Z,105
2016-12-01T08:51:45.828Z,105
2016-12-01T08:52:55.535Z,105
2016-12-01T08:54:05.231Z,100
2016-12-01T08:55:15.259Z,100
2016-12-01T08:56:25.285Z,95
2016-12-01T08:57:35.622Z,90
2016-12-01T08:58:45.314Z,95
2016-12-01T08:59:55.340Z,90
2016-12-01T09:01:05.365Z,90
2016-12-01T09:02:15.389Z,90
2016-12-01T09:03:25.395Z,95
2016-12-01T09:04:35.410Z,95
2016-12-01T09:05:45.448Z,95
2016-12-01T09:06:55.157Z,90
2016-12-01T09:08:04.864Z,90
2016-12-01T09:09:14.874Z,90
2016-12-01T09:10:24.881Z,90
2016-12-01T09:11:33.983Z,85
2016-12-01T09:12:44.319Z,85
2016-12-01T09:13:54.647Z,85
2016-12-01T09:15:04.361Z,85
2016-12-01T09:16:14.374Z,85
2016-12-01T09:17:24.088Z,80
2016-12-01T09:18:34.117Z,85
2016-12-01T09:19:44.135Z,85
2016-12-01T09:20:53.541Z,85
2016-12-01T09:22:03.573Z,85
2016-12-01T09:23:13.285Z,85
2016-12-01T09:24:23.035Z,85
2016-12-01T09:25:32.735Z,85
2016-12-01T09:26:42.449Z,80
2016-12-01T09:27:52.769Z,80
2016-12-01T09:29:02.832Z,80
2016-12-01T09:30:13.080Z,75
2016-12-01T09:31:27.197Z,80
2016-12-01T09:32:38.548Z,80
2016-12-01T09:33:57.584Z,80
2016-12-01T09:35:09.003Z,85
2016-12-01T09:36:19.270Z,85
2016-12-01T09:37:29.651Z,85
2016-12-01T09:38:39.355Z,85
2016-12-01T09:39:50.115Z,85
2016-12-01T09:41:00.446Z,85
2016-12-01T09:42:10.542Z,85
2016-12-01T09:43:20.719Z,80
2016-12-01T09:44:31.107Z,80
2016-12-01T09:45:41.174Z,75
2016-12-01T09:46:51.209Z,75
2016-12-01T09:48:00.923Z,75
2016-12-01T09:49:11.550Z,80
2016-12-01T09:50:21.585Z,80
2016-12-01T09:51:31.609Z,80
2016-12-01T09:52:42.209Z,80
2016-12-01T09:53:52.244Z,80
2016-12-01T09:55:02.671Z,80
2016-12-01T09:56:13.052Z,85
2016-12-01T09:57:23.169Z,85
2016-12-01T09:58:33.196Z,85
2016-12-01T09:59:42.651Z,85
2016-12-01T10:00:53.025Z,85
2016-12-01T10:02:03.089Z,80
2016-12-01T10:03:13.488Z,80
2016-12-01T10:04:23.934Z,75
2016-12-01T10:05:34.309Z,70
2016-12-01T10:06:44.716Z,75
2016-12-01T10:07:54.756Z,75
2016-12-01T10:09:04.648Z,80
2016-12-01T10:10:14.989Z,85
2016-12-01T10:11:25.331Z,80
2016-12-01T10:12:35.688Z,85
2016-12-01T10:13:45.751Z,80
2016-12-01T10:14:56.087Z,75
2016-12-01T10:16:06.508Z,70
2016-12-01T10:17:15.974Z,70
2016-12-01T10:18:26.007Z,65
2016-12-01T10:19:36.410Z,60
2016-12-01T10:20:46.474Z,60
2016-12-01T10:21:56.519Z,60
2016-12-01T10:23:06.848Z,65
2016-12-01T10:24:17.197Z,70
2016-12-01T10:25:26.906Z,70
2016-12-01T10:26:37.249Z,70
2016-12-01T10:27:47.567Z,65
2016-12-01T10:28:57.578Z,65
2016-12-01T10:30:07.615Z,65
2016-12-01T10:31:17.985Z,65
2016-12-01T10:32:28.030Z,60
2016-12-01T10:33:38.065Z,60
2016-12-01T10:34:48.066Z,55
2016-12-01T10:35:58.401Z,55
2016-12-01T10:37:08.440Z,55
2016-12-01T10:38:18.795Z,55
2016-12-01T10:39:28.807Z,55
2016-12-01T10:40:38.844Z,60
2016-12-01T10:41:48.887Z,60
2016-12-01T10:42:59.218Z,55
2016-12-01T10:44:09.229Z,55
2016-12-01T10:45:19.260Z,55
2016-12-01T10:46:29.269Z,55
2016-12-01T10:47:39.600Z,55
2016-12-01T10:48:49.621Z,55
2016-12-01T10:49:59.664Z,50
2016-12-01T10:51:09.985Z,50
2016-12-01T10:52:20.011Z,50
2016-12-01T10:53:30.335Z,50
2016-12-01T10:54:40.669Z,50
2016-12-01T10:55:51.016Z,55
2016-12-01T10:57:01.359Z,55
2016-12-01T10:58:11.695Z,55
2016-12-01T10:59:22.021Z,50
2016-12-01T11:00:32.054Z,50
2016-12-01T11:01:42.111Z,50
2016-12-01T11:02:51.840Z,50
2016-12-01T11:04:01.543Z,55
2016-12-01T11:05:11.561Z,60
2016-12-01T11:06:21.576Z,60
2016-12-01T11:07:31.908Z,60
2016-12-01T11:08:42.245Z,55
2016-12-01T11:09:52.582Z,50
2016-12-01T11:11:02.904Z,50
2016-12-01T11:12:12.982Z,50
2016-12-01T11:13:22.684Z,50
2016-12-01T11:14:33.005Z,50
2016-12-01T11:15:43.342Z,50
2016-12-01T11:16:53.682Z,50
2016-12-01T11:18:04.038Z,50
2016-12-01T11:19:14.328Z,50
2016-12-01T11:20:24.362Z,50
2016-12-01T11:21:33.762Z,50
2016-12-01T11:22:44.091Z,50
2016-12-01T11:23:54.417Z,50
2016-12-01T11:25:04.469Z,50
2016-12-01T11:26:14.491Z,50
2016-12-01T11:27:24.198Z,45
2016-12-01T11:28:34.283Z,45
2016-12-01T11:29:43.977Z,45
2016-12-01T11:30:53.697Z,45
2016-12-01T11:32:04.044Z,45
2016-12-01T11:33:14.383Z,45
2016-12-01T11:34:24.708Z,45
2016-12-01T11:35:34.759Z,45
2016-12-01T11:36:44.462Z,40
2016-12-01T11:37:54.793Z,40
2016-12-01T11:39:04.805Z,40
2016-12-01T11:40:15.080Z,40
2016-12-01T11:41:25.083Z,40
2016-12-01T11:42:35.400Z,40
2016-12-01T11:43:45.412Z,35
2016-12-01T11:44:55.757Z,35
2016-12-01T11:46:05.494Z,30
2016-12-01T11:47:15.208Z,30
2016-12-01T11:48:25.232Z,30
2016-12-01T11:49:35.558Z,30
2016-12-01T11:50:45.588Z,30
2016-12-01T11:51:55.817Z,35
2016-12-01T11:53:06.505Z,35
2016-12-01T11:54:16.539Z,35
2016-12-01T11:55:27.118Z,40
2016-12-01T11:56:37.462Z,45
2016-12-01T11:57:47.522Z,45
2016-12-01T11:58:57.254Z,45
2016-12-01T12:00:07.592Z,45
2016-12-01T12:01:17.639Z,45
2016-12-01T12:02:27.664Z,45
2016-12-01T12:03:37.691Z,45
2016-12-01T12:04:48.029Z,45
2016-12-01T12:05:58.385Z,45
2016-12-01T12:07:08.403Z,50
2016-12-01T12:08:18.723Z,50
2016-12-01T12:09:28.440Z,50
2016-12-01T12:10:38.777Z,50
2016-12-01T12:11:48.489Z,50
2016-12-01T12:12:58.811Z,50
2016-12-01T12:14:09.156Z,45
2016-12-01T12:15:19.170Z,45
2016-12-01T12:16:29.505Z,45
2016-12-01T12:17:39.232Z,45
2016-12-01T12:18:49.559Z,45
2016-12-01T12:19:59.270Z,45
2016-12-01T12:21:08.677Z,45
2016-12-01T12:22:18.720Z,45
2016-12-01T12:23:29.057Z,45
2016-12-01T12:24:38.451Z,45
2016-12-01T12:25:48.795Z,45
2016-12-01T12:26:59.137Z,45
2016-12-01T12:28:09.164Z,45
2016-12-01T12:29:19.233Z,45
2016-12-01T12:30:29.262Z,45
2016-12-01T12:31:39.293Z,45
2016-12-01T12:32:49.305Z,45
2016-12-01T12:33:59.665Z,45
2016-12-01T12:35:09.987Z,40
2016-12-01T12:36:20.341Z,40
2016-12-01T12:37:30.352Z,40
2016-12-01T12:38:40.679Z,40
2016-12-01T12:39:50.701Z,40
2016-12-01T12:41:00.736Z,40
2016-12-01T12:42:11.068Z,40
2016-12-01T12:43:21.092Z,40
2016-12-01T12:44:30.496Z,40
2016-12-01T12:45:40.832Z,40
2016-12-01T12:46:50.854Z,40
2016-12-01T12:48:00.920Z,40
2016-12-01T12:49:11.012Z,45
2016-12-01T12:50:21.404Z,45
2016-12-01T12:51:31.775Z,40
2016-12-01T12:52:42.164Z,40
2016-12-01T12:53:51.925Z,40
2016-12-01T12:55:02.311Z,40
2016-12-01T12:56:12.691Z,40
2016-12-01T12:57:22.746Z,40
2016-12-01T12:58:33.130Z,40
2016-12-01T12:59:42.895Z,35
2016-12-01T13:00:52.975Z,35
2016-12-01T13:02:03.403Z,35
2016-12-01T13:03:13.778Z,35
2016-12-01T13:04:24.073Z,35
2016-12-01T13:05:34.131Z,30
2016-12-01T13:06:43.554Z,30
2016-12-01T13:07:53.941Z,30
2016-12-01T13:09:03.379Z,30
2016-12-01T13:10:13.760Z,30
2016-12-01T13:11:24.126Z,30
2016-12-01T13:12:33.841Z,30
2016-12-01T13:13:44.208Z,30
2016-12-01T13:14:53.926Z,30
2016-12-01T13:16:03.972Z,25
2016-12-01T13:17:14.328Z,25
2016-12-01T13:18:24.133Z,25
2016-12-01T13:19:34.499Z,30
2016-12-01T13:20:44.536Z,30
2016-12-01T13:21:53.937Z,30
2016-12-01T13:23:04.280Z,25
2016-12-01T13:24:14.336Z,25
2016-12-01T13:25:24.709Z,25
2016-12-01T13:26:35.091Z,25
2016-12-01T13:27:45.148Z,25
2016-12-01T13:28:54.875Z,25
2016-12-01T13:30:04.948Z,25
2016-12-01T13:31:15.299Z,25
2016-12-01T13:32:25.341Z,25
2016-12-01T13:33:35.720Z,20
2016-12-01T13:34:46.054Z,20
2016-12-01T13:35:56.086Z,20
2016-12-01T13:37:06.446Z,20
2016-12-01T13:38:16.794Z,20
2016-12-01T13:39:26.845Z,20
2016-12-01T13:40:37.213Z,15
2016-12-01T13:41:47.604Z,15
2016-12-01T13:42:58.002Z,15
2016-12-01T13:44:08.387Z,20
2016-12-01T13:45:18.153Z,15
2016-12-01T13:46:28.542Z,15
2016-12-01T13:47:38.980Z,15
2016-12-01T13:48:49.356Z,15
2016-12-01T13:49:59.737Z,15
2016-12-01T13:51:09.539Z,15
2016-12-01T13:52:19.971Z,15
2016-12-01T13:53:30.011Z,15
2016-12-01T13:54:40.350Z,15
2016-12-01T13:55:50.395Z,15
2016-12-01T13:57:00.447Z,15
2016-12-01T13:58:10.535Z,15
2016-12-01T13:59:20.578Z,15
2016-12-01T14:00:30.319Z,15
2016-12-01T14:01:40.729Z,15
2016-12-01T14:02:50.752Z,15
2016-12-01T14:04:01.126Z,15
2016-12-01T14:05:11.165Z,10
2016-12-01T14:06:21.509Z,10
2016-12-01T14:07:31.538Z,10
2016-12-01T14:08:41.884Z,10
2016-12-01T14:09:52.236Z,10
2016-12-01T14:11:02.594Z,10
2016-12-01T14:12:12.933Z,10
2016-12-01T14:13:23.295Z,10
2016-12-01T14:14:33.639Z,10
2016-12-01T14:15:43.974Z,10
2016-12-01T14:16:54.331Z,10
2016-12-01T14:18:04.348Z,5
2016-12-01T14:19:14.686Z,5
2016-12-01T14:20:24.701Z,5
2016-12-01T14:21:35.037Z,5
2016-12-01T14:22:45.398Z,5
2016-12-01T14:23:55.765Z,5
2016-12-01T14:25:06.135Z,5
2016-12-01T14:26:16.476Z,5
2016-12-01T14:27:26.507Z,5
2016-12-01T14:28:35.924Z,5
2016-12-01T14:29:46.275Z,5
2016-12-01T14:30:56.625Z,5
2016-12-01T14:32:06.349Z,0
2016-12-01T14:33:16.687Z,0
2016-12-01T14:34:27.056Z,0
2016-12-01T14:35:37.075Z,0
2016-12-01T14:36:47.410Z,0
2016-12-01T14:37:57.141Z,0
2016-12-01T14:39:07.194Z,0
2016-12-01T14:40:17.215Z,0
2016-12-01T14:41:27.226Z,0
2016-12-01T14:42:37.580Z,0
2016-12-01T14:43:47.911Z,0
2016-12-01T14:44:57.941Z,0
2016-12-01T14:46:07.977Z,0
2016-12-01T14:47:17.994Z,0
2016-12-01T14:48:28.015Z,0
2016-12-01T14:49:38.382Z,0
2016-12-01T14:50:48.729Z,0
2016-12-01T14:51:59.083Z,0
2016-12-01T14:53:09.155Z,0
2016-12-01T14:54:18.880Z,0
2016-12-01T14:55:29.220Z,0
2016-12-01T14:56:39.577Z,0
2016-12-01T14:57:49.595Z,0
2016-12-01T14:58:59.963Z,0
2016-12-01T15:00:10.356Z,0
2016-12-01T15:01:20.380Z,0
2016-12-01T15:02:30.424Z,0
2016-12-01T15:03:40.783Z,0
2016-12-01T15:04:51.123Z,0
2016-12-01T15:06:01.153Z,0
2016-12-01T15:07:11.157Z,0
2016-12-01T15:08:21.195Z,0
2016-12-01T15:09:31.541Z,0
2016-12-01T15:10:41.877Z,0
2016-12-01T15:11:51.906Z,0
2016-12-01T15:13:02.259Z,0
2016-12-01T15:14:12.628Z,0
2016-12-01T15:15:22.672Z,0
2016-12-01T15:16:33.034Z,0
2016-12-01T15:17:42.737Z,0
2016-12-01T15:18:52.486Z,0
2016-12-01T15:20:02.196Z,0
2016-12-01T15:21:12.228Z,0
2016-12-01T15:22:22.265Z,0
2016-12-01T15:23:32.625Z,0
2016-12-01T15:24:42.967Z,0
2016-12-01T15:25:53.008Z,0
2016-12-01T15:27:02.715Z,0
2016-12-01T15:28:12.414Z,0
2016-12-01T15:29:22.445Z,0
2016-12-01T15:30:32.799Z,0
2016-12-01T15:31:42.821Z,0
2016-12-01T15:32:52.849Z,0
2016-12-01T15:34:03.192Z,0
2016-12-01T15:35:13.527Z,0
2016-12-01T15:36:23.869Z,0
2016-12-01T15:37:33.891Z,0
2016-12-01T15:38:43.613Z,0
2016-12-01T15:39:53.643Z,0
2016-12-01T15:41:03.977Z,0
2016-12-01T15:42:14.004Z,0
2016-12-01T15:43:24.349Z,0
2016-12-01T15:44:34.687Z,0
2016-12-01T15:45:45.026Z,0
2016-12-01T15:46:54.742Z,0
2016-12-01T15:48:04.482Z,0
2016-12-01T15:49:14.530Z,0
2016-12-01T15:50:24.884Z,0
2016-12-01T15:51:34.603Z,0
2016-12-01T15:52:44.634Z,0
2016-12-01T15:53:55.029Z,0
2016-12-01T15:55:05.367Z,0
2016-12-01T15:56:15.387Z,0
2016-12-01T15:57:25.431Z,0
2016-12-01T15:58:35.448Z,0
2016-12-01T15:59:45.817Z,0
2016-12-01T16:00:55.846Z,0
2016-12-01T16:02:05.899Z,0
2016-12-01T16:03:15.921Z,0
2016-12-01T16:04:25.947Z,0
2016-12-01T16:05:35.963Z,0
2016-12-01T16:06:45.991Z,0
2016-12-01T16:07:56.332Z,0
2016-12-01T16:09:06.356Z,0
2016-12-01T16:10:16.377Z,0
2016-12-01T16:11:26.706Z,0
2016-12-01T16:12:36.428Z,0
2016-12-01T16:13:46.760Z,0
2016-12-01T16:14:56.800Z,0
2016-12-01T16:16:06.831Z,0
2016-12-01T16:17:16.840Z,0
2016-12-01T16:18:26.906Z,0
2016-12-01T16:19:36.964Z,0
2016-12-01T16:20:46.713Z,0
2016-12-01T16:21:56.433Z,0
2016-12-01T16:23:06.465Z,0
2016-12-01T16:24:16.502Z,0
2016-12-01T16:25:26.535Z,0
2016-12-01T16:26:36.507Z,0
2016-12-01T16:27:46.675Z,0
2016-12-01T16:28:56.727Z,0
2016-12-01T16:30:07.116Z,0
2016-12-01T16:31:17.167Z,0
2016-12-01T16:32:27.603Z,0
2016-12-01T16:33:38.065Z,0
2016-12-01T16:34:48.082Z,0
2016-12-01T16:35:58.453Z,0
2016-12-01T16:37:08.834Z,0
2016-12-01T16:38:18.924Z,0
2016-12-01T16:39:29.299Z,0
2016-12-01T16:40:39.714Z,0
2016-12-01T16:41:50.093Z,0
2016-12-01T16:43:00.138Z,0
2016-12-01T16:44:10.526Z,0
2016-12-01T16:45:20.922Z,0
2016-12-01T16:46:31.300Z,0
2016-12-01T16:47:41.681Z,0
2016-12-01T16:48:51.729Z,0
2016-12-01T16:50:01.774Z,0
2016-12-01T16:51:11.801Z,0
2016-12-01T16:52:21.518Z,0
2016-12-01T16:53:31.541Z,0
2016-12-01T16:54:41.880Z,0
2016-12-01T16:55:51.899Z,0
2016-12-01T16:57:01.934Z,0
2016-12-01T16:58:12.262Z,0
2016-12-01T16:59:22.317Z,0
2016-12-01T17:00:32.362Z,0
2016-12-01T17:01:42.732Z,0
2016-12-01T17:02:52.764Z,0
2016-12-01T17:04:03.108Z,0
2016-12-01T17:05:13.452Z,0
2016-12-01T17:06:23.171Z,0
2016-12-01T17:07:33.538Z,0
2016-12-01T17:08:43.882Z,0
2016-12-01T17:09:53.322Z,0
2016-12-01T17:11:03.371Z,0
2016-12-01T17:12:13.717Z,0
2016-12-01T17:13:23.950Z,0
2016-12-01T17:14:34.520Z,0
2016-12-01T17:15:44.567Z,0
2016-12-01T17:16:54.910Z,0
2016-12-01T17:18:04.943Z,0
2016-12-01T17:19:15.276Z,0
2016-12-01T17:20:25.308Z,0
2016-12-01T17:21:35.353Z,0
2016-12-01T17:22:45.386Z,0
2016-12-01T17:23:55.747Z,0
2016-12-01T17:25:05.787Z,0
2016-12-01T17:26:16.149Z,0
2016-12-01T17:27:26.515Z,0
2016-12-01T17:28:36.863Z,0
2016-12-01T17:29:47.208Z,0
2016-12-01T17:30:57.244Z,0
2016-12-01T17:32:07.589Z,0